createdAt,value
2023-04-06T00:00:13.019Z,4.60
2023-04-06T00:01:12.974Z,4.70
2023-04-06T00:02:12.999Z,4.70
2023-04-06T00:03:13.129Z,4.80
2023-04-06T00:04:13.397Z,4.90
2023-04-06T00:05:13.786Z,4.90
2023-04-06T00:06:15.400Z,5.00
2023-04-06T00:07:13.730Z,5.20
2023-04-06T00:08:13.823Z,5.10
2023-04-06T00:09:13.957Z,5.30
2023-04-06T00:10:13.215Z,5.30
2023-04-06T00:11:13.760Z,5.20
2023-04-06T00:12:13.735Z,5.00
2023-04-06T00:13:13.839Z,4.80
2023-04-06T00:14:14.145Z,4.90
2023-04-06T00:15:13.291Z,5.10
2023-04-06T00:16:13.205Z,5.10
2023-04-06T00:17:13.297Z,5.30
2023-04-06T00:18:13.267Z,5.20
2023-04-06T00:19:13.094Z,5.30
2023-04-06T00:20:13.240Z,5.30
2023-04-06T00:21:13.138Z,5.20
2023-04-06T00:22:13.139Z,5.10
2023-04-06T00:23:13.088Z,5.10
2023-04-06T00:24:13.140Z,5.00
2023-04-06T00:25:13.406Z,5.00
2023-04-06T00:26:13.297Z,4.90
2023-04-06T00:27:13.599Z,4.80
2023-04-06T00:28:13.460Z,4.70
2023-04-06T00:29:13.518Z,4.40
2023-04-06T00:30:13.593Z,4.50
2023-04-06T00:31:13.442Z,4.70
2023-04-06T00:32:13.381Z,4.70
2023-04-06T00:33:13.545Z,4.70
2023-04-06T00:34:13.479Z,4.70
2023-04-06T00:35:13.753Z,4.70
2023-04-06T00:36:13.730Z,4.90
2023-04-06T00:37:13.663Z,4.90
2023-04-06T00:38:13.722Z,4.90
2023-04-06T00:39:13.571Z,5.10
2023-04-06T00:40:13.491Z,5.10
2023-04-06T00:41:13.560Z,5.00
2023-04-06T00:42:13.456Z,5.10
2023-04-06T00:43:13.361Z,5.00
2023-04-06T00:44:13.376Z,5.00
2023-04-06T00:45:13.475Z,5.00
2023-04-06T00:46:13.420Z,5.00
2023-04-06T00:47:13.475Z,5.10
2023-04-06T00:48:13.403Z,5.10
2023-04-06T00:49:13.459Z,5.20
2023-04-06T00:50:13.695Z,5.20
2023-04-06T00:51:13.601Z,5.20
2023-04-06T00:52:13.427Z,5.20
2023-04-06T00:53:13.337Z,5.20
2023-04-06T00:54:13.290Z,5.10
2023-04-06T00:55:13.358Z,5.20
2023-04-06T00:56:13.967Z,5.30
2023-04-06T00:57:13.259Z,5.40
2023-04-06T00:58:13.443Z,5.50
2023-04-06T00:59:13.688Z,5.40
2023-04-06T01:00:13.686Z,5.40
2023-04-06T01:01:13.609Z,5.50
2023-04-06T01:02:13.803Z,5.80
2023-04-06T01:03:14.120Z,5.80
2023-04-06T01:04:13.027Z,5.80
2023-04-06T01:05:12.963Z,5.90
2023-04-06T01:06:12.999Z,5.90
2023-04-06T01:07:13.002Z,6.00
2023-04-06T01:08:13.088Z,5.90
2023-04-06T01:09:13.440Z,6.00
2023-04-06T01:10:13.350Z,6.10
2023-04-06T01:11:13.292Z,6.20
2023-04-06T01:12:13.473Z,6.10
2023-04-06T01:13:13.502Z,6.20
2023-04-06T01:14:13.790Z,6.20
2023-04-06T01:15:13.793Z,6.10
2023-04-06T01:16:13.770Z,6.20
2023-04-06T01:17:13.636Z,6.20
2023-04-06T01:18:13.571Z,6.10
2023-04-06T01:19:13.463Z,6.20
2023-04-06T01:20:13.439Z,6.30
2023-04-06T01:21:13.396Z,6.20
2023-04-06T01:22:13.327Z,6.10
2023-04-06T01:23:13.424Z,6.10
2023-04-06T01:24:13.655Z,6.20
2023-04-06T01:25:13.494Z,6.10
2023-04-06T01:26:13.604Z,6.20
2023-04-06T01:27:13.639Z,6.20
2023-04-06T01:28:13.766Z,6.30
2023-04-06T01:29:14.130Z,6.30
2023-04-06T01:30:13.062Z,6.20
2023-04-06T01:31:13.005Z,6.30
2023-04-06T01:32:13.247Z,6.40
2023-04-06T01:33:13.370Z,6.30
2023-04-06T01:34:13.356Z,6.10
2023-04-06T01:35:13.558Z,6.20
2023-04-06T01:36:13.418Z,6.10
2023-04-06T01:37:13.594Z,6.20
2023-04-06T01:38:13.631Z,6.20
2023-04-06T01:39:13.655Z,6.30
2023-04-06T01:40:13.596Z,6.10
2023-04-06T01:41:13.689Z,6.10
2023-04-06T01:42:13.568Z,6.10
2023-04-06T01:43:13.609Z,6.00
2023-04-06T01:44:13.505Z,5.90
2023-04-06T01:45:13.505Z,6.00
2023-04-06T01:46:13.817Z,5.90
2023-04-06T01:47:13.698Z,5.90
2023-04-06T01:48:14.143Z,6.10
2023-04-06T01:49:13.294Z,5.90
2023-04-06T01:50:13.132Z,5.90
2023-04-06T01:51:13.365Z,5.90
2023-04-06T01:52:13.557Z,5.90
2023-04-06T01:53:13.543Z,6.00
2023-04-06T01:54:13.632Z,6.10
2023-04-06T01:55:13.728Z,6.10
2023-04-06T01:56:13.895Z,6.20
2023-04-06T01:57:13.082Z,6.00
2023-04-06T01:58:13.116Z,5.90
2023-04-06T01:59:13.089Z,5.80
2023-04-06T02:00:13.108Z,5.90
2023-04-06T02:01:13.900Z,6.10
2023-04-06T02:02:13.074Z,6.10
2023-04-06T02:03:13.455Z,5.90
2023-04-06T02:04:13.764Z,5.90
2023-04-06T02:05:14.016Z,5.80
2023-04-06T02:06:13.187Z,5.70
2023-04-06T02:07:13.503Z,5.70
2023-04-06T02:08:13.702Z,5.70
2023-04-06T02:09:13.634Z,5.60
2023-04-06T02:10:13.568Z,5.60
2023-04-06T02:11:13.558Z,5.50
2023-04-06T02:12:13.424Z,5.20
2023-04-06T02:13:13.492Z,5.40
2023-04-06T02:14:13.889Z,5.40
2023-04-06T02:15:12.822Z,5.30
2023-04-06T02:16:14.001Z,5.20
2023-04-06T02:17:12.962Z,4.80
2023-04-06T02:18:12.963Z,5.00
2023-04-06T02:19:13.553Z,5.20
2023-04-06T02:20:13.547Z,5.40
2023-04-06T02:21:13.568Z,5.10
2023-04-06T02:22:13.715Z,5.20
2023-04-06T02:23:14.181Z,5.40
2023-04-06T02:24:13.435Z,5.30
2023-04-06T02:25:13.499Z,5.60
2023-04-06T02:26:13.398Z,5.70
2023-04-06T02:27:13.306Z,5.60
2023-04-06T02:28:13.191Z,5.60
2023-04-06T02:29:13.026Z,5.50
2023-04-06T02:30:12.849Z,5.60
2023-04-06T02:31:13.697Z,5.40
2023-04-06T02:32:13.666Z,5.40
2023-04-06T02:33:13.823Z,5.50
2023-04-06T02:34:13.803Z,5.50
2023-04-06T02:35:13.703Z,5.40
2023-04-06T02:36:13.780Z,5.50
2023-04-06T02:37:13.960Z,5.40
2023-04-06T02:38:13.096Z,5.30
2023-04-06T02:39:13.256Z,5.30
2023-04-06T02:40:13.397Z,5.40
2023-04-06T02:41:13.396Z,5.40
2023-04-06T02:42:13.758Z,5.30
2023-04-06T02:43:13.879Z,5.50
2023-04-06T02:44:13.916Z,5.40
2023-04-06T02:45:13.065Z,5.30
2023-04-06T02:46:13.442Z,5.40
2023-04-06T02:47:13.843Z,5.40
2023-04-06T02:48:13.862Z,5.60
2023-04-06T02:49:14.347Z,5.50
2023-04-06T02:50:13.439Z,5.50
2023-04-06T02:51:13.767Z,5.60
2023-04-06T02:52:14.030Z,5.60
2023-04-06T02:53:13.105Z,5.50
2023-04-06T02:54:13.142Z,5.60
2023-04-06T02:55:13.117Z,5.40
2023-04-06T02:56:13.359Z,5.60
2023-04-06T02:57:13.500Z,5.60
2023-04-06T02:58:13.988Z,5.50
2023-04-06T02:59:13.276Z,5.40
2023-04-06T03:00:13.327Z,5.50
2023-04-06T03:01:13.490Z,5.40
2023-04-06T03:02:13.909Z,5.50
2023-04-06T03:03:13.391Z,5.50
2023-04-06T03:04:13.468Z,5.50
2023-04-06T03:05:13.496Z,5.60
2023-04-06T03:06:13.438Z,5.70
2023-04-06T03:07:13.394Z,5.60
2023-04-06T03:08:13.370Z,5.60
2023-04-06T03:09:13.694Z,5.50
2023-04-06T03:10:13.815Z,5.50
2023-04-06T03:11:14.039Z,5.60
2023-04-06T03:12:13.203Z,5.60
2023-04-06T03:13:13.220Z,5.40
2023-04-06T03:14:13.413Z,5.40
2023-04-06T03:15:13.416Z,5.70
2023-04-06T03:16:13.808Z,5.60
2023-04-06T03:17:13.713Z,5.50
2023-04-06T03:18:13.888Z,5.70
2023-04-06T03:19:12.900Z,5.40
2023-04-06T03:20:12.839Z,5.50
2023-04-06T03:21:13.739Z,5.80
2023-04-06T03:22:13.971Z,5.70
2023-04-06T03:23:14.205Z,5.70
2023-04-06T03:24:13.169Z,5.70
2023-04-06T03:25:13.247Z,5.80
2023-04-06T03:26:13.350Z,5.80
2023-04-06T03:27:13.404Z,5.80
2023-04-06T03:28:13.501Z,5.80
2023-04-06T03:29:13.704Z,5.90
2023-04-06T03:30:13.882Z,5.80
2023-04-06T03:31:14.094Z,5.80
2023-04-06T03:32:13.354Z,5.90
2023-04-06T03:33:13.603Z,5.80
2023-04-06T03:34:13.857Z,5.60
2023-04-06T03:35:13.959Z,5.30
2023-04-06T03:36:12.772Z,5.80
2023-04-06T03:37:13.999Z,5.50
2023-04-06T03:38:13.006Z,5.70
2023-04-06T03:39:12.979Z,5.80
2023-04-06T03:40:12.830Z,5.80
2023-04-06T03:41:13.883Z,5.80
2023-04-06T03:42:12.949Z,5.80
2023-04-06T03:43:12.911Z,5.90
2023-04-06T03:44:12.869Z,6.10
2023-04-06T03:45:14.060Z,6.10
2023-04-06T03:46:13.476Z,5.80
2023-04-06T03:47:13.521Z,6.00
2023-04-06T03:48:13.929Z,6.00
2023-04-06T03:49:13.033Z,5.80
2023-04-06T03:50:13.001Z,6.10
2023-04-06T03:51:13.324Z,6.20
2023-04-06T03:52:13.532Z,6.00
2023-04-06T03:53:13.371Z,6.40
2023-04-06T03:54:13.663Z,6.20
2023-04-06T03:55:13.659Z,6.20
2023-04-06T03:56:13.663Z,6.20
2023-04-06T03:57:13.654Z,6.20
2023-04-06T03:58:13.650Z,6.20
2023-04-06T03:59:13.732Z,5.90
2023-04-06T04:00:13.884Z,6.00
2023-04-06T04:01:13.318Z,5.90
2023-04-06T04:02:13.712Z,6.00
2023-04-06T04:03:14.206Z,5.80
2023-04-06T04:04:13.201Z,6.00
2023-04-06T04:05:13.302Z,6.10
2023-04-06T04:06:13.300Z,6.00
2023-04-06T04:07:13.212Z,6.00
2023-04-06T04:08:13.111Z,6.10
2023-04-06T04:09:13.330Z,6.00
2023-04-06T04:10:13.536Z,6.10
2023-04-06T04:11:13.843Z,6.20
2023-04-06T04:12:13.989Z,6.10
2023-04-06T04:13:13.045Z,6.00
2023-04-06T04:14:13.347Z,5.90
2023-04-06T04:15:13.827Z,6.10
2023-04-06T04:16:14.056Z,6.10
2023-04-06T04:17:13.027Z,6.00
2023-04-06T04:18:12.887Z,5.90
2023-04-06T04:19:18.858Z,6.10
2023-04-06T04:20:13.938Z,6.20
2023-04-06T04:21:12.939Z,6.10
2023-04-06T04:22:13.293Z,6.10
2023-04-06T04:23:13.532Z,6.20
2023-04-06T04:24:13.716Z,6.00
2023-04-06T04:25:13.593Z,6.00
2023-04-06T04:26:13.754Z,6.00
2023-04-06T04:27:14.041Z,6.10
2023-04-06T04:28:13.091Z,6.10
2023-04-06T04:29:13.183Z,6.10
2023-04-06T04:30:13.066Z,5.90
2023-04-06T04:31:13.115Z,5.80
2023-04-06T04:32:13.554Z,5.70
2023-04-06T04:33:13.707Z,5.80
2023-04-06T04:34:13.887Z,5.80
2023-04-06T04:35:12.808Z,5.50
2023-04-06T04:36:13.827Z,5.60
2023-04-06T04:37:13.642Z,5.80
2023-04-06T04:38:13.491Z,5.80
2023-04-06T04:39:13.721Z,5.80
2023-04-06T04:40:13.732Z,5.80
2023-04-06T04:41:13.854Z,5.60
2023-04-06T04:42:13.874Z,5.60
2023-04-06T04:43:13.913Z,5.70
2023-04-06T04:44:12.764Z,5.70
2023-04-06T04:45:14.107Z,5.70
2023-04-06T04:46:13.145Z,5.70
2023-04-06T04:47:13.586Z,5.60
2023-04-06T04:48:13.671Z,5.60
2023-04-06T04:49:13.857Z,5.60
2023-04-06T04:50:13.885Z,5.50
2023-04-06T04:51:14.159Z,5.40
2023-04-06T04:52:13.480Z,5.40
2023-04-06T04:53:13.452Z,5.40
2023-04-06T04:54:13.556Z,5.50
2023-04-06T04:55:13.841Z,5.50
2023-04-06T04:56:13.841Z,5.70
2023-04-06T04:57:14.043Z,5.70
2023-04-06T04:58:13.533Z,5.70
2023-04-06T04:59:13.750Z,5.70
2023-04-06T05:00:13.991Z,5.60
2023-04-06T05:01:12.958Z,5.60
2023-04-06T05:02:13.364Z,5.80
2023-04-06T05:03:13.741Z,5.80
2023-04-06T05:04:14.138Z,5.50
2023-04-06T05:05:13.426Z,5.60
2023-04-06T05:06:13.872Z,5.80
2023-04-06T05:07:12.885Z,5.90
2023-04-06T05:08:13.150Z,5.70
2023-04-06T05:09:13.354Z,5.80
2023-04-06T05:10:13.474Z,6.10
2023-04-06T05:11:13.363Z,6.20
2023-04-06T05:12:13.368Z,6.20
2023-04-06T05:13:13.491Z,6.10
2023-04-06T05:14:13.555Z,6.10
2023-04-06T05:15:13.572Z,5.80
2023-04-06T05:16:13.793Z,6.20
2023-04-06T05:17:13.914Z,6.30
2023-04-06T05:18:12.938Z,6.40
2023-04-06T05:19:12.881Z,6.60
2023-04-06T05:20:13.955Z,6.30
2023-04-06T05:21:12.832Z,6.30
2023-04-06T05:22:14.064Z,6.50
2023-04-06T05:23:13.782Z,6.20
2023-04-06T05:24:13.683Z,6.50
2023-04-06T05:25:13.574Z,6.30
2023-04-06T05:26:13.406Z,6.30
2023-04-06T05:27:13.673Z,6.40
2023-04-06T05:28:13.570Z,6.40
2023-04-06T05:29:13.633Z,6.40
2023-04-06T05:30:13.609Z,6.40
2023-04-06T05:31:13.589Z,6.50
2023-04-06T05:32:13.641Z,6.40
2023-04-06T05:33:13.727Z,6.30
2023-04-06T05:34:14.001Z,6.40
2023-04-06T05:35:13.166Z,6.40
2023-04-06T05:36:15.174Z,6.40
2023-04-06T05:37:13.626Z,6.70
2023-04-06T05:38:13.916Z,6.60
2023-04-06T05:39:12.870Z,6.60
2023-04-06T05:40:13.938Z,6.50
2023-04-06T05:41:13.263Z,6.70
2023-04-06T05:42:13.270Z,6.40
2023-04-06T05:43:13.161Z,6.50
2023-04-06T05:44:13.507Z,6.40
2023-04-06T05:45:13.641Z,6.60
2023-04-06T05:46:13.860Z,6.60
2023-04-06T05:47:12.850Z,6.60
2023-04-06T05:48:13.824Z,6.70
2023-04-06T05:49:13.847Z,6.70
2023-04-06T05:50:13.796Z,7.00
2023-04-06T05:51:14.008Z,6.70
2023-04-06T05:52:13.158Z,6.80
2023-04-06T05:53:13.469Z,6.50
2023-04-06T05:54:13.646Z,6.60
2023-04-06T05:55:13.595Z,6.70
2023-04-06T05:56:13.790Z,6.70
2023-04-06T05:57:13.696Z,6.90
2023-04-06T05:58:13.702Z,6.70
2023-04-06T05:59:13.834Z,7.10
2023-04-06T06:00:14.154Z,6.80
2023-04-06T06:01:13.096Z,6.90
2023-04-06T06:02:13.062Z,7.20
2023-04-06T06:03:13.078Z,7.20
2023-04-06T06:04:13.192Z,7.00
2023-04-06T06:05:13.582Z,7.20
2023-04-06T06:06:13.752Z,7.20
2023-04-06T06:07:13.617Z,7.20
2023-04-06T06:08:13.971Z,7.10
2023-04-06T06:09:12.851Z,7.10
2023-04-06T06:10:13.715Z,7.20
2023-04-06T06:11:13.863Z,7.50
2023-04-06T06:12:14.762Z,7.20
2023-04-06T06:13:12.788Z,7.30
2023-04-06T06:14:13.865Z,7.30
2023-04-06T06:15:14.100Z,7.30
2023-04-06T06:16:13.332Z,7.40
2023-04-06T06:17:13.439Z,7.30
2023-04-06T06:18:13.475Z,7.30
2023-04-06T06:19:13.391Z,7.40
2023-04-06T06:20:13.455Z,7.30
2023-04-06T06:21:13.351Z,7.10
2023-04-06T06:22:13.597Z,7.40
2023-04-06T06:23:13.540Z,7.50
2023-04-06T06:24:13.919Z,7.50
2023-04-06T06:25:12.956Z,7.40
2023-04-06T06:26:12.794Z,7.60
2023-04-06T06:27:14.244Z,7.50
2023-04-06T06:28:13.626Z,7.60
2023-04-06T06:29:13.585Z,7.60
2023-04-06T06:30:13.494Z,7.40
2023-04-06T06:31:13.403Z,7.50
2023-04-06T06:32:13.417Z,7.50
2023-04-06T06:33:13.318Z,7.30
2023-04-06T06:34:13.289Z,7.30
2023-04-06T06:35:13.283Z,7.40
2023-04-06T06:36:13.203Z,7.90
2023-04-06T06:37:13.507Z,8.00
2023-04-06T06:38:13.687Z,7.60
2023-04-06T06:39:13.688Z,7.60
2023-04-06T06:40:13.928Z,7.80
2023-04-06T06:41:13.200Z,8.00
2023-04-06T06:42:14.708Z,8.10
2023-04-06T06:43:12.873Z,7.90
2023-04-06T06:44:14.122Z,8.00
2023-04-06T06:45:13.298Z,7.90
2023-04-06T06:46:13.731Z,7.90
2023-04-06T06:47:13.630Z,7.90
2023-04-06T06:48:13.701Z,8.00
2023-04-06T06:49:13.952Z,8.20
2023-04-06T06:50:12.911Z,8.00
2023-04-06T06:51:12.921Z,7.60
2023-04-06T06:52:12.873Z,8.00
2023-04-06T06:53:13.806Z,8.50
2023-04-06T06:54:13.854Z,8.50
2023-04-06T06:55:19.191Z,8.10
2023-04-06T06:56:13.130Z,7.80
2023-04-06T06:57:13.054Z,8.20
2023-04-06T06:58:13.421Z,8.30
2023-04-06T06:59:13.717Z,8.60
2023-04-06T07:00:13.730Z,8.60
2023-04-06T07:01:13.697Z,8.80
2023-04-06T07:02:14.352Z,8.90
2023-04-06T07:03:13.635Z,8.90
2023-04-06T07:04:14.841Z,9.10
2023-04-06T07:05:26.668Z,8.90
2023-04-06T07:06:12.941Z,8.90
2023-04-06T07:07:16.714Z,8.60
2023-04-06T07:08:14.050Z,8.30
2023-04-06T07:09:13.228Z,8.20
2023-04-06T07:10:13.082Z,8.60
2023-04-06T07:11:13.050Z,8.80
2023-04-06T07:12:13.352Z,8.80
2023-04-06T07:13:13.223Z,8.40
2023-04-06T07:14:13.198Z,8.90
2023-04-06T07:15:13.582Z,9.40
2023-04-06T07:16:13.545Z,9.20
2023-04-06T07:17:13.895Z,9.10
2023-04-06T07:18:12.906Z,9.20
2023-04-06T07:19:13.387Z,9.00
2023-04-06T07:20:13.585Z,8.80
2023-04-06T07:21:13.556Z,8.50
2023-04-06T07:22:13.521Z,8.80
2023-04-06T07:23:13.351Z,9.00
2023-04-06T07:24:13.333Z,8.80
2023-04-06T07:25:13.461Z,9.10
2023-04-06T07:26:13.827Z,9.00
2023-04-06T07:27:13.804Z,9.30
2023-04-06T07:28:14.026Z,9.10
2023-04-06T07:29:13.445Z,9.60
2023-04-06T07:30:13.388Z,9.90
2023-04-06T07:31:13.450Z,10.30
2023-04-06T07:32:13.520Z,9.40
2023-04-06T07:33:13.641Z,9.80
2023-04-06T07:34:13.675Z,10.20
2023-04-06T07:35:13.783Z,9.60
2023-04-06T07:36:13.639Z,9.70
2023-04-06T07:37:13.873Z,10.10
2023-04-06T07:38:13.026Z,9.80
2023-04-06T07:39:13.013Z,10.40
2023-04-06T07:40:13.018Z,10.20
2023-04-06T07:41:13.244Z,10.10
2023-04-06T07:42:13.203Z,10.00
2023-04-06T07:43:13.181Z,9.70
2023-04-06T07:44:13.384Z,10.20
2023-04-06T07:45:13.534Z,10.30
2023-04-06T07:46:13.459Z,10.10
2023-04-06T07:47:13.502Z,10.10
2023-04-06T07:48:13.470Z,10.30
2023-04-06T07:49:13.992Z,10.40
2023-04-06T07:50:13.154Z,10.40
2023-04-06T07:51:13.202Z,10.10
2023-04-06T07:52:13.302Z,10.00
2023-04-06T07:53:13.439Z,9.80
2023-04-06T07:54:13.354Z,10.10
2023-04-06T07:55:13.300Z,10.50
2023-04-06T07:56:14.523Z,10.10
2023-04-06T07:57:13.662Z,10.30
2023-04-06T07:58:13.572Z,10.40
2023-04-06T07:59:13.855Z,10.40
2023-04-06T08:00:13.295Z,10.50
2023-04-06T08:01:13.363Z,10.40
2023-04-06T08:02:13.769Z,10.10
2023-04-06T08:03:14.078Z,10.10
2023-04-06T08:04:13.463Z,10.50
2023-04-06T08:05:13.930Z,10.20
2023-04-06T08:06:12.816Z,10.00
2023-04-06T08:07:13.768Z,10.60
2023-04-06T08:08:14.100Z,11.10
2023-04-06T08:09:13.253Z,10.70
2023-04-06T08:10:13.137Z,11.10
2023-04-06T08:11:13.025Z,11.40
2023-04-06T08:12:13.053Z,10.90
2023-04-06T08:13:12.952Z,11.50
2023-04-06T08:14:12.853Z,11.30
2023-04-06T08:15:13.666Z,11.90
2023-04-06T08:16:13.777Z,11.60
2023-04-06T08:17:13.954Z,11.60
2023-04-06T08:18:12.955Z,11.20
2023-04-06T08:19:12.891Z,10.90
2023-04-06T08:20:12.843Z,11.10
2023-04-06T08:21:13.885Z,11.30
2023-04-06T08:22:14.032Z,11.60
2023-04-06T08:23:12.882Z,11.10
2023-04-06T08:24:12.914Z,11.40
2023-04-06T08:25:12.832Z,11.50
2023-04-06T08:26:13.802Z,11.30
2023-04-06T08:27:14.062Z,11.40
2023-04-06T08:28:13.105Z,10.70
2023-04-06T08:29:13.115Z,11.20
2023-04-06T08:30:12.964Z,10.90
2023-04-06T08:31:13.015Z,11.10
2023-04-06T08:32:13.027Z,11.00
2023-04-06T08:33:12.987Z,11.60
2023-04-06T08:34:14.102Z,11.80
2023-04-06T08:35:13.628Z,11.90
2023-04-06T08:36:13.795Z,12.10
2023-04-06T08:37:13.817Z,11.90
2023-04-06T08:38:13.829Z,11.50
2023-04-06T08:39:13.980Z,11.50
2023-04-06T08:40:13.361Z,11.50
2023-04-06T08:41:13.310Z,12.30
2023-04-06T08:42:13.302Z,11.30
2023-04-06T08:43:13.275Z,11.20
2023-04-06T08:44:13.166Z,11.60
2023-04-06T08:45:13.029Z,12.00
2023-04-06T08:46:12.988Z,12.30
2023-04-06T08:47:12.945Z,12.60
2023-04-06T08:48:12.923Z,12.90
2023-04-06T08:49:12.963Z,12.60
2023-04-06T08:50:14.558Z,13.00
2023-04-06T08:51:15.094Z,12.70
2023-04-06T08:52:13.018Z,12.70
2023-04-06T08:53:13.026Z,12.50
2023-04-06T08:54:12.928Z,12.90
2023-04-06T08:55:13.116Z,12.20
2023-04-06T08:56:13.044Z,12.50
2023-04-06T08:57:13.093Z,13.30
2023-04-06T08:58:15.726Z,13.90
2023-04-06T08:59:13.253Z,12.40
2023-04-06T09:00:13.341Z,13.30
2023-04-06T09:01:13.631Z,13.00
2023-04-06T09:02:13.798Z,12.60
2023-04-06T09:03:13.439Z,13.20
2023-04-06T09:04:14.036Z,13.40
2023-04-06T09:05:13.407Z,13.80
2023-04-06T09:06:13.589Z,14.20
2023-04-06T09:07:13.558Z,13.30
2023-04-06T09:08:13.525Z,13.10
2023-04-06T09:09:13.586Z,13.20
2023-04-06T09:10:13.690Z,13.70
2023-04-06T09:11:13.575Z,14.60
2023-04-06T09:12:13.468Z,13.60
2023-04-06T09:13:13.321Z,13.70
2023-04-06T09:14:13.617Z,14.20
2023-04-06T09:15:13.610Z,14.70
2023-04-06T09:16:13.669Z,15.10
2023-04-06T09:17:13.539Z,14.30
2023-04-06T09:18:13.644Z,14.40
2023-04-06T09:19:13.875Z,15.20
2023-04-06T09:20:12.861Z,15.80
2023-04-06T09:21:13.895Z,14.70
2023-04-06T09:22:12.994Z,15.00
2023-04-06T09:23:12.989Z,15.00
2023-04-06T09:24:12.954Z,14.10
2023-04-06T09:25:13.100Z,13.90
2023-04-06T09:26:13.314Z,14.00
2023-04-06T09:27:13.689Z,14.90
2023-04-06T09:28:13.840Z,14.40
2023-04-06T09:29:13.707Z,14.30
2023-04-06T09:30:13.577Z,14.00
2023-04-06T09:31:13.442Z,13.30
2023-04-06T09:32:13.417Z,14.00
2023-04-06T09:33:13.462Z,14.70
2023-04-06T09:34:13.435Z,14.10
2023-04-06T09:35:13.529Z,13.70
2023-04-06T09:36:13.449Z,14.00
2023-04-06T09:37:14.345Z,13.60
2023-04-06T09:38:13.265Z,13.50
2023-04-06T09:39:13.362Z,13.70
2023-04-06T09:40:13.372Z,14.60
2023-04-06T09:41:13.446Z,14.40
2023-04-06T09:42:13.314Z,15.10
2023-04-06T09:43:13.160Z,15.00
2023-04-06T09:44:13.326Z,14.90
2023-04-06T09:45:13.346Z,14.80
2023-04-06T09:46:13.277Z,13.80
2023-04-06T09:47:13.372Z,14.20
2023-04-06T09:48:13.391Z,14.50
2023-04-06T09:49:13.479Z,14.40
2023-04-06T09:50:13.441Z,14.50
2023-04-06T09:51:13.742Z,14.50
2023-04-06T09:52:13.592Z,15.70
2023-04-06T09:53:13.502Z,15.10
2023-04-06T09:54:13.650Z,14.50
2023-04-06T09:55:14.434Z,14.20
2023-04-06T09:56:13.437Z,14.50
2023-04-06T09:57:14.809Z,13.80
2023-04-06T09:58:13.432Z,14.90
2023-04-06T09:59:13.560Z,14.20
2023-04-06T10:00:13.567Z,13.80
2023-04-06T10:01:13.580Z,14.30
2023-04-06T10:02:13.734Z,13.70
2023-04-06T10:03:13.691Z,13.70
2023-04-06T10:04:14.258Z,14.40
2023-04-06T10:05:13.552Z,15.20
2023-04-06T10:06:13.657Z,15.90
2023-04-06T10:07:13.705Z,15.20
2023-04-06T10:08:13.708Z,14.20
2023-04-06T10:09:13.930Z,14.20
2023-04-06T10:10:13.249Z,14.10
2023-04-06T10:11:13.172Z,14.20
2023-04-06T10:12:13.156Z,15.20
2023-04-06T10:13:13.160Z,15.70
2023-04-06T10:14:13.199Z,15.30
2023-04-06T10:15:13.176Z,15.20
2023-04-06T10:16:13.176Z,14.70
2023-04-06T10:17:13.076Z,14.80
2023-04-06T10:18:12.922Z,15.00
2023-04-06T10:19:13.271Z,14.90
2023-04-06T10:20:13.424Z,14.40
2023-04-06T10:21:13.459Z,13.70
2023-04-06T10:22:13.568Z,14.10
2023-04-06T10:23:13.621Z,14.60
2023-04-06T10:24:13.550Z,15.40
2023-04-06T10:25:13.593Z,14.70
2023-04-06T10:26:13.573Z,14.90
2023-04-06T10:27:13.813Z,14.90
2023-04-06T10:28:13.678Z,14.20
2023-04-06T10:29:13.577Z,14.70
2023-04-06T10:30:13.735Z,14.30
2023-04-06T10:31:18.885Z,14.90
2023-04-06T10:32:13.513Z,15.00
2023-04-06T10:33:14.062Z,14.60
2023-04-06T10:34:13.197Z,14.90
2023-04-06T10:35:13.723Z,15.90
2023-04-06T10:36:13.902Z,15.40
2023-04-06T10:37:13.018Z,14.60
2023-04-06T10:38:13.271Z,14.80
2023-04-06T10:39:13.291Z,14.90
2023-04-06T10:40:13.572Z,14.80
2023-04-06T10:41:13.460Z,15.10
2023-04-06T10:42:13.483Z,15.50
2023-04-06T10:43:13.840Z,15.80
2023-04-06T10:44:13.095Z,16.10
2023-04-06T10:45:13.237Z,14.90
2023-04-06T10:46:13.550Z,14.90
2023-04-06T10:47:13.716Z,15.00
2023-04-06T10:48:13.760Z,15.00
2023-04-06T10:49:14.520Z,16.20
2023-04-06T10:50:13.447Z,17.30
2023-04-06T10:51:15.310Z,17.80
2023-04-06T10:52:13.784Z,17.10
2023-04-06T10:53:13.955Z,15.20
2023-04-06T10:54:13.280Z,15.30
2023-04-06T10:55:13.431Z,15.00
2023-04-06T10:56:13.949Z,15.30
2023-04-06T10:57:13.060Z,14.90
2023-04-06T10:58:13.210Z,15.10
2023-04-06T10:59:13.280Z,15.10
2023-04-06T11:00:13.352Z,15.90
2023-04-06T11:01:13.606Z,16.60
2023-04-06T11:02:13.593Z,16.70
2023-04-06T11:03:13.625Z,17.30
2023-04-06T11:04:13.583Z,17.10
2023-04-06T11:05:13.655Z,17.80
2023-04-06T11:06:13.753Z,17.30
2023-04-06T11:07:13.717Z,17.10
2023-04-06T11:08:13.820Z,15.70
2023-04-06T11:09:14.744Z,16.20
2023-04-06T11:10:18.324Z,15.90
2023-04-06T11:11:13.562Z,16.00
2023-04-06T11:12:13.653Z,16.00
2023-04-06T11:13:13.553Z,15.70
2023-04-06T11:14:13.435Z,16.30
2023-04-06T11:15:13.486Z,15.60
2023-04-06T11:16:13.466Z,15.60
2023-04-06T11:17:13.750Z,15.80
2023-04-06T11:18:13.894Z,16.30
2023-04-06T11:19:12.862Z,17.10
2023-04-06T11:20:13.953Z,18.00
2023-04-06T11:21:12.917Z,17.50
2023-04-06T11:22:13.185Z,17.70
2023-04-06T11:23:13.715Z,17.10
2023-04-06T11:24:14.045Z,16.50
2023-04-06T11:25:13.263Z,17.00
2023-04-06T11:26:13.211Z,15.80
2023-04-06T11:27:13.090Z,17.00
2023-04-06T11:28:13.015Z,17.30
2023-04-06T11:29:13.424Z,16.90
2023-04-06T11:30:13.442Z,16.20
2023-04-06T11:31:13.552Z,16.30
2023-04-06T11:32:13.672Z,16.00
2023-04-06T11:33:13.695Z,16.70
2023-04-06T11:34:13.625Z,15.60
2023-04-06T11:35:13.539Z,16.80
2023-04-06T11:36:15.818Z,16.20
2023-04-06T11:37:13.717Z,16.30
2023-04-06T11:38:13.686Z,16.10
2023-04-06T11:39:14.039Z,16.20
2023-04-06T11:40:13.388Z,16.50
2023-04-06T11:41:13.544Z,16.80
2023-04-06T11:42:13.758Z,16.30
2023-04-06T11:43:14.081Z,15.50
2023-04-06T11:44:13.218Z,15.90
2023-04-06T11:45:13.102Z,16.10
2023-04-06T11:46:13.429Z,15.50
2023-04-06T11:47:13.588Z,16.50
2023-04-06T11:48:13.647Z,16.20
2023-04-06T11:49:13.703Z,16.80
2023-04-06T11:50:14.197Z,17.30
2023-04-06T11:51:16.001Z,16.90
2023-04-06T11:52:12.997Z,16.40
2023-04-06T11:53:12.998Z,15.40
2023-04-06T11:54:13.551Z,15.10
2023-04-06T11:55:13.756Z,15.80
2023-04-06T11:56:14.012Z,16.10
2023-04-06T11:57:12.926Z,16.90
2023-04-06T11:58:13.361Z,17.20
2023-04-06T11:59:13.367Z,16.60
2023-04-06T12:00:13.584Z,16.40
2023-04-06T12:01:14.696Z,16.80
2023-04-06T12:02:19.093Z,17.10
2023-04-06T12:03:15.361Z,16.60
2023-04-06T12:04:13.390Z,15.80
2023-04-06T12:05:13.482Z,15.80
2023-04-06T12:06:13.384Z,16.40
2023-04-06T12:07:13.256Z,15.70
2023-04-06T12:08:18.308Z,16.00
2023-04-06T12:09:13.698Z,16.10
2023-04-06T12:10:13.943Z,15.60
2023-04-06T12:11:13.190Z,15.60
2023-04-06T12:12:13.343Z,16.10
2023-04-06T12:13:14.162Z,16.00
2023-04-06T12:14:13.384Z,15.60
2023-04-06T12:15:13.737Z,15.60
2023-04-06T12:16:13.920Z,15.40
2023-04-06T12:17:13.267Z,16.20
2023-04-06T12:18:13.330Z,16.20
2023-04-06T12:20:22.592Z,16.60
2023-04-06T12:21:13.278Z,17.30
2023-04-06T12:22:13.147Z,16.20
2023-04-06T12:23:13.477Z,16.20
2023-04-06T12:24:15.164Z,16.90
2023-04-06T12:25:13.300Z,16.60
2023-04-06T12:26:13.565Z,17.70
2023-04-06T12:27:13.505Z,17.80
2023-04-06T12:28:13.866Z,17.20
2023-04-06T12:29:13.942Z,16.20
2023-04-06T12:30:14.531Z,16.60
2023-04-06T12:31:13.537Z,16.90
2023-04-06T12:32:13.596Z,17.20
2023-04-06T12:33:13.693Z,16.60
2023-04-06T12:34:14.041Z,15.60
2023-04-06T12:35:13.194Z,16.00
2023-04-06T12:36:13.271Z,16.50
2023-04-06T12:37:13.448Z,16.70
2023-04-06T12:38:13.471Z,16.30
2023-04-06T12:39:13.933Z,16.50
2023-04-06T12:40:12.888Z,16.10
2023-04-06T12:41:13.060Z,16.00
2023-04-06T12:42:13.214Z,15.80
2023-04-06T12:43:13.214Z,16.50
2023-04-06T12:44:13.487Z,17.60
2023-04-06T12:45:13.580Z,18.10
2023-04-06T12:46:13.758Z,18.50
2023-04-06T12:47:15.325Z,18.50
2023-04-06T12:48:13.575Z,17.90
2023-04-06T12:49:13.657Z,16.60
2023-04-06T12:50:13.700Z,17.50
2023-04-06T12:51:15.708Z,17.30
2023-04-06T12:52:13.961Z,16.60
2023-04-06T12:53:13.292Z,16.10
2023-04-06T12:54:13.300Z,15.90
2023-04-06T12:55:13.516Z,16.10
2023-04-06T12:56:13.744Z,16.30
2023-04-06T12:57:13.883Z,16.30
2023-04-06T12:58:13.883Z,16.10
2023-04-06T12:59:13.241Z,16.80
2023-04-06T13:00:14.988Z,16.50
2023-04-06T13:01:13.247Z,16.30
2023-04-06T13:02:13.290Z,16.30
2023-04-06T13:03:13.282Z,15.80
2023-04-06T13:04:13.807Z,15.80
2023-04-06T13:05:15.242Z,15.90
2023-04-06T13:06:13.358Z,16.40
2023-04-06T13:07:13.185Z,17.30
2023-04-06T13:08:13.188Z,17.60